createdAt,value
2022-12-19T00:00:39.434Z,19.53
2022-12-19T00:03:46.672Z,18.83
2022-12-19T00:06:49.213Z,20.35
2022-12-19T00:09:52.134Z,20.48
2022-12-19T00:12:54.584Z,19.50
2022-12-19T00:16:04.552Z,20.27
2022-12-19T00:19:07.773Z,19.15
2022-12-19T00:22:11.360Z,18.98
2022-12-19T00:25:14.072Z,18.55
2022-12-19T00:28:17.207Z,19.37
2022-12-19T00:31:23.153Z,18.33
2022-12-19T00:34:26.236Z,20.27
2022-12-19T00:37:29.083Z,19.87
2022-12-19T00:40:32.118Z,19.77
2022-12-19T00:43:35.474Z,19.95
2022-12-19T00:46:38.942Z,18.63
2022-12-19T00:49:41.424Z,17.42
2022-12-19T00:52:45.208Z,19.33
2022-12-19T00:55:47.723Z,18.60
2022-12-19T00:58:51.193Z,18.92
2022-12-19T01:01:54.007Z,19.07
2022-12-19T01:04:56.950Z,18.27
2022-12-19T01:07:59.404Z,19.75
2022-12-19T01:11:05.301Z,18.02
2022-12-19T01:14:10.380Z,20.20
2022-12-19T01:17:14.629Z,18.33
2022-12-19T01:20:21.423Z,17.55
2022-12-19T01:23:32.831Z,19.40
2022-12-19T01:26:35.421Z,17.75
2022-12-19T01:29:52.492Z,19.35
2022-12-19T01:32:56.752Z,21.07
2022-12-19T01:36:07.733Z,18.52
2022-12-19T01:39:10.713Z,17.48
2022-12-19T01:42:21.143Z,15.98
2022-12-19T01:45:34.085Z,17.33
2022-12-19T01:48:43.961Z,17.33
2022-12-19T01:51:48.479Z,16.73
2022-12-19T01:54:51.434Z,19.02
2022-12-19T01:57:54.744Z,17.35
2022-12-19T02:00:58.216Z,20.17
2022-12-19T02:04:02.050Z,18.33
2022-12-19T02:07:15.541Z,18.60
2022-12-19T02:10:19.186Z,16.95
2022-12-19T02:13:23.111Z,18.05
2022-12-19T02:16:39.221Z,18.87
2022-12-19T02:20:16.112Z,19.50
2022-12-19T02:23:34.645Z,17.37
2022-12-19T02:27:14.127Z,19.33
2022-12-19T02:30:36.546Z,18.30
2022-12-19T02:33:56.241Z,16.85
2022-12-19T02:37:10.598Z,17.33
2022-12-19T02:40:16.790Z,17.70
2022-12-19T02:43:20.889Z,18.42
2022-12-19T02:46:25.346Z,17.98
2022-12-19T02:49:31.266Z,16.60
2022-12-19T02:52:34.355Z,20.13
2022-12-19T02:56:14.868Z,18.05
2022-12-19T02:59:43.906Z,18.62
2022-12-19T03:03:22.254Z,16.87
2022-12-19T03:06:43.390Z,18.90
2022-12-19T03:10:08.640Z,15.13
2022-12-19T03:13:33.907Z,16.00
2022-12-19T03:16:38.145Z,18.12
2022-12-19T03:19:41.556Z,16.73
2022-12-19T03:22:44.412Z,17.75
2022-12-19T03:25:50.132Z,15.97
2022-12-19T03:29:09.786Z,16.83
2022-12-19T03:32:16.181Z,16.12
2022-12-19T03:35:22.805Z,17.92
2022-12-19T03:38:26.551Z,18.08
2022-12-19T03:41:48.542Z,17.17
2022-12-19T03:44:51.693Z,17.87
2022-12-19T03:48:01.075Z,15.50
2022-12-19T03:51:11.644Z,16.85
2022-12-19T03:54:19.147Z,16.15
2022-12-19T03:57:28.627Z,15.90
2022-12-19T04:00:34.787Z,15.07
2022-12-19T04:03:37.664Z,18.05
2022-12-19T04:06:42.577Z,16.23
2022-12-19T04:09:45.918Z,16.80
2022-12-19T04:13:02.337Z,17.00
2022-12-19T04:16:22.679Z,14.80
2022-12-19T04:19:30.635Z,15.18
2022-12-19T04:22:47.249Z,14.50
2022-12-19T04:25:51.879Z,15.65
2022-12-19T04:28:56.791Z,17.87
2022-12-19T04:32:00.253Z,15.93
2022-12-19T04:35:03.310Z,13.80
2022-12-19T04:38:06.560Z,15.82
2022-12-19T04:41:11.171Z,15.50
2022-12-19T04:44:13.660Z,16.80
2022-12-19T04:47:16.438Z,15.85
2022-12-19T04:50:19.201Z,17.12
2022-12-19T04:53:21.937Z,15.55
2022-12-19T04:56:24.523Z,17.00
2022-12-19T04:59:27.703Z,16.67
2022-12-19T05:02:30.490Z,15.20
2022-12-19T05:05:33.350Z,15.95
2022-12-19T05:08:38.103Z,16.23
2022-12-19T05:11:41.168Z,16.20
2022-12-19T05:14:43.621Z,17.90
2022-12-19T05:17:46.493Z,17.25
2022-12-19T05:20:49.356Z,14.82
2022-12-19T05:23:52.320Z,15.07
2022-12-19T05:26:54.746Z,15.88
2022-12-19T05:29:57.590Z,14.57
2022-12-19T05:33:00.378Z,13.70
2022-12-19T05:36:03.944Z,16.50
2022-12-19T05:39:06.774Z,15.40
2022-12-19T05:42:12.338Z,14.50
2022-12-19T05:45:15.239Z,13.87
2022-12-19T05:48:18.139Z,14.82
2022-12-19T05:51:21.255Z,15.25
2022-12-19T05:54:24.132Z,15.18
2022-12-19T05:57:26.647Z,13.93
2022-12-19T06:00:33.832Z,13.80
2022-12-19T06:03:37.022Z,13.95
2022-12-19T06:06:39.689Z,13.60
2022-12-19T06:09:42.958Z,14.95
2022-12-19T06:12:45.893Z,13.23
2022-12-19T06:15:48.786Z,13.63
2022-12-19T06:18:51.494Z,10.93
2022-12-19T06:21:54.283Z,13.20
2022-12-19T06:24:57.250Z,14.38
2022-12-19T06:28:00.083Z,12.95
2022-12-19T06:31:04.794Z,12.60
2022-12-19T06:34:10.238Z,12.13
2022-12-19T06:37:12.810Z,11.98
2022-12-19T06:40:35.785Z,11.98
2022-12-19T06:43:38.478Z,10.48
2022-12-19T06:46:42.184Z,10.30
2022-12-19T06:49:45.411Z,11.40
2022-12-19T06:52:48.280Z,9.57
2022-12-19T06:55:52.665Z,12.45
2022-12-19T06:58:55.502Z,11.40
2022-12-19T07:02:00.665Z,11.10
2022-12-19T07:05:05.670Z,11.55
2022-12-19T07:08:08.703Z,10.95
2022-12-19T07:11:11.823Z,11.12
2022-12-19T07:14:14.336Z,10.65
2022-12-19T07:17:18.179Z,11.83
2022-12-19T07:20:21.654Z,9.68
2022-12-19T07:23:24.588Z,11.60
2022-12-19T07:26:27.577Z,12.20
2022-12-19T07:29:30.512Z,12.50
2022-12-19T07:32:33.246Z,9.90
2022-12-19T07:35:36.109Z,10.63
2022-12-19T07:38:38.805Z,9.57
2022-12-19T07:41:41.698Z,9.93
2022-12-19T07:44:44.500Z,9.57
2022-12-19T07:47:47.983Z,11.40
2022-12-19T07:50:50.687Z,10.40
2022-12-19T07:53:53.556Z,9.07
2022-12-19T07:56:56.434Z,8.52
2022-12-19T07:59:59.388Z,9.10
2022-12-19T08:03:02.534Z,8.35
2022-12-19T08:06:06.841Z,8.75
2022-12-19T08:09:09.470Z,8.73
2022-12-19T08:12:12.891Z,10.07
2022-12-19T08:15:15.352Z,9.13
2022-12-19T08:18:18.247Z,9.52
2022-12-19T08:21:20.727Z,9.23
2022-12-19T08:24:23.569Z,9.30
2022-12-19T08:27:26.749Z,10.52
2022-12-19T08:30:29.881Z,10.03
2022-12-19T08:33:32.429Z,9.27
2022-12-19T08:36:35.291Z,9.27
2022-12-19T08:39:37.788Z,9.32
2022-12-19T08:42:40.661Z,9.05
2022-12-19T08:45:43.145Z,8.57
2022-12-19T08:48:46.766Z,8.70
2022-12-19T08:51:49.758Z,10.57
2022-12-19T08:54:52.572Z,9.00
2022-12-19T08:57:55.061Z,8.90
2022-12-19T09:01:05.491Z,9.67
2022-12-19T09:05:52.004Z,10.13
2022-12-19T09:07:31.259Z,8.68
2022-12-19T09:10:37.622Z,10.57
2022-12-19T09:13:41.879Z,8.82
2022-12-19T09:16:44.352Z,10.17
2022-12-19T09:19:47.747Z,9.52
2022-12-19T09:22:50.933Z,9.45
2022-12-19T09:25:54.944Z,10.43
2022-12-19T09:28:57.594Z,9.25
2022-12-19T09:32:00.428Z,9.60
2022-12-19T09:35:02.985Z,9.30
2022-12-19T09:38:05.847Z,10.38
2022-12-19T09:41:20.745Z,8.80
2022-12-19T09:44:45.179Z,10.13
2022-12-19T09:47:49.023Z,10.00
2022-12-19T09:50:54.762Z,10.25
2022-12-19T09:54:09.354Z,11.52
2022-12-19T09:57:22.395Z,9.48
2022-12-19T10:00:32.881Z,10.50
2022-12-19T10:03:42.379Z,10.80
2022-12-19T10:07:11.419Z,10.95
2022-12-19T10:12:34.537Z,11.05
2022-12-19T10:13:55.013Z,8.85
2022-12-19T10:17:24.478Z,10.43
2022-12-19T10:20:31.105Z,10.37
2022-12-19T10:23:45.936Z,10.45
2022-12-19T10:26:52.177Z,11.75
2022-12-19T10:30:10.927Z,11.12
2022-12-19T10:33:27.147Z,10.32
2022-12-19T10:37:04.599Z,11.10
2022-12-19T10:40:37.197Z,11.20
2022-12-19T10:44:02.638Z,9.57
2022-12-19T10:47:05.250Z,10.63
2022-12-19T10:50:23.516Z,10.57
2022-12-19T10:53:28.881Z,11.53
2022-12-19T10:56:37.508Z,11.88
2022-12-19T10:59:56.456Z,11.15
2022-12-19T11:03:16.698Z,11.10
2022-12-19T11:06:42.579Z,10.07
2022-12-19T11:09:49.630Z,8.57
2022-12-19T11:18:26.395Z,10.57
2022-12-19T11:22:24.727Z,8.93
2022-12-19T11:29:26.910Z,9.75
2022-12-19T11:29:38.527Z,10.15
2022-12-19T11:30:41.740Z,10.17
2022-12-19T11:34:35.687Z,8.75
2022-12-19T11:37:46.117Z,8.38
2022-12-19T11:40:53.521Z,9.45
2022-12-19T11:44:03.365Z,9.70
2022-12-19T11:47:23.910Z,9.98
2022-12-19T11:50:30.153Z,10.65
2022-12-19T11:53:44.826Z,8.70
2022-12-19T11:56:47.658Z,9.77
2022-12-19T11:59:52.619Z,9.37
2022-12-19T12:03:09.410Z,10.35
2022-12-19T12:06:15.434Z,10.02
2022-12-19T12:13:01.618Z,11.38
2022-12-19T12:23:13.230Z,9.93
2022-12-19T12:30:19.047Z,9.43
2022-12-19T12:31:17.331Z,8.63
2022-12-19T12:31:38.743Z,9.30
2022-12-19T12:31:41.052Z,9.38
2022-12-19T12:31:49.209Z,9.15
2022-12-19T12:35:56.312Z,8.83
2022-12-19T12:38:26.496Z,9.77
2022-12-19T12:41:56.886Z,10.10
2022-12-19T12:44:59.696Z,9.43
2022-12-19T12:48:02.561Z,10.60
2022-12-19T12:51:05.880Z,9.90
2022-12-19T12:54:12.464Z,11.57
2022-12-19T12:57:36.995Z,10.32
2022-12-19T13:00:39.961Z,9.20
2022-12-19T13:03:43.040Z,10.35
2022-12-19T13:06:51.913Z,10.37
2022-12-19T13:10:43.950Z,9.98
2022-12-19T13:13:58.113Z,9.23
2022-12-19T13:17:07.688Z,10.60
2022-12-19T13:20:12.179Z,8.57
2022-12-19T13:23:30.110Z,10.90
2022-12-19T13:26:49.334Z,9.27
2022-12-19T13:30:12.433Z,9.40
2022-12-19T13:33:16.341Z,9.75
2022-12-19T13:39:55.645Z,10.63
2022-12-19T13:40:32.273Z,9.83
2022-12-19T13:43:48.114Z,10.40
2022-12-19T13:46:50.968Z,9.40
2022-12-19T13:49:53.951Z,11.02
2022-12-19T13:52:57.164Z,9.25
2022-12-19T13:56:12.301Z,9.50
2022-12-19T13:59:15.140Z,9.15
2022-12-19T14:02:28.901Z,10.40
2022-12-19T14:06:16.850Z,9.00
2022-12-19T14:11:24.978Z,10.68
2022-12-19T14:13:40.195Z,9.80
2022-12-19T14:16:16.285Z,9.18
2022-12-19T14:19:21.761Z,9.63
2022-12-19T14:22:27.511Z,10.60
2022-12-19T14:28:21.196Z,9.05
2022-12-19T14:29:45.553Z,8.67
2022-12-19T14:33:46.159Z,10.52
2022-12-19T14:36:25.704Z,9.07
2022-12-19T14:39:35.276Z,9.82
2022-12-19T14:43:59.031Z,10.63
2022-12-19T14:51:51.586Z,8.93
2022-12-19T14:54:15.828Z,8.55
2022-12-19T14:54:26.486Z,9.63
2022-12-19T14:57:00.696Z,9.30
2022-12-19T15:01:07.174Z,8.90
2022-12-19T15:04:49.547Z,10.10
2022-12-19T15:07:19.801Z,9.55
2022-12-19T15:11:03.269Z,10.10
2022-12-19T15:14:51.087Z,10.98
2022-12-19T15:17:25.501Z,10.35
2022-12-19T15:20:28.383Z,10.50
2022-12-19T15:23:31.399Z,9.65
2022-12-19T15:26:36.066Z,11.18
2022-12-19T15:29:38.637Z,10.85
2022-12-19T15:32:41.799Z,9.27
2022-12-19T15:35:45.168Z,9.97
2022-12-19T15:38:48.071Z,11.43
2022-12-19T15:41:52.113Z,10.88
2022-12-19T15:45:00.096Z,12.32
2022-12-19T15:48:02.668Z,10.43
2022-12-19T15:51:05.744Z,11.53
2022-12-19T15:54:46.633Z,10.73
2022-12-19T15:57:33.888Z,12.27
2022-12-19T16:00:36.863Z,11.73
2022-12-19T16:03:40.227Z,11.00
2022-12-19T16:06:44.373Z,11.00
2022-12-19T16:09:48.122Z,10.88
2022-12-19T16:12:53.215Z,11.32
2022-12-19T16:15:57.859Z,11.77
2022-12-19T16:19:00.416Z,10.18
2022-12-19T16:22:15.378Z,10.97
2022-12-19T16:25:18.128Z,11.48
2022-12-19T16:28:30.881Z,11.30
2022-12-19T16:31:33.750Z,12.37
2022-12-19T16:34:36.611Z,11.60
2022-12-19T16:37:39.155Z,11.10
2022-12-19T16:40:42.730Z,10.80
2022-12-19T16:43:45.904Z,11.35
2022-12-19T16:46:51.390Z,12.75
2022-12-19T16:49:54.273Z,11.65
2022-12-19T16:52:57.372Z,9.97
2022-12-19T16:56:00.283Z,9.68
2022-12-19T16:59:08.501Z,10.98
2022-12-19T17:02:26.004Z,10.65
2022-12-19T17:05:30.893Z,10.80
2022-12-19T17:08:33.782Z,11.53
2022-12-19T17:11:36.672Z,10.30
2022-12-19T17:14:39.226Z,11.73
2022-12-19T17:17:42.078Z,10.07
2022-12-19T17:20:46.601Z,10.48
2022-12-19T17:23:50.205Z,10.10
2022-12-19T17:26:52.864Z,10.75
2022-12-19T17:29:55.912Z,11.55
2022-12-19T17:32:59.224Z,11.52
2022-12-19T17:36:03.672Z,10.00
2022-12-19T17:39:18.851Z,10.23
2022-12-19T17:42:24.052Z,10.43
2022-12-19T17:45:29.570Z,9.95
2022-12-19T17:48:33.416Z,9.43
2022-12-19T17:51:35.898Z,12.55
2022-12-19T17:54:38.825Z,10.63
2022-12-19T17:57:41.366Z,11.80
2022-12-19T18:00:44.948Z,11.63
2022-12-19T18:03:50.828Z,9.65
2022-12-19T18:06:53.638Z,11.00
2022-12-19T18:09:56.819Z,10.63
2022-12-19T18:12:59.385Z,12.77
2022-12-19T18:16:03.494Z,11.20
2022-12-19T18:19:06.423Z,9.68
2022-12-19T18:22:13.576Z,10.70
2022-12-19T18:25:22.423Z,10.93
2022-12-19T18:28:25.280Z,11.02
2022-12-19T18:31:28.045Z,10.32
2022-12-19T18:34:32.230Z,10.50
2022-12-19T18:37:34.689Z,10.75
2022-12-19T18:40:38.191Z,11.03
2022-12-19T18:43:40.965Z,11.55
2022-12-19T18:46:44.368Z,12.25
2022-12-19T18:49:48.316Z,11.43
2022-12-19T18:52:52.214Z,11.25
2022-12-19T18:55:55.639Z,12.83
2022-12-19T18:59:03.868Z,11.25
2022-12-19T19:02:24.172Z,11.25
2022-12-19T19:05:29.683Z,11.73
2022-12-19T19:08:34.286Z,12.80
2022-12-19T19:11:39.255Z,12.43
2022-12-19T19:14:42.236Z,12.23
2022-12-19T19:17:48.291Z,10.77
2022-12-19T19:20:55.727Z,12.57
2022-12-19T19:24:06.003Z,13.88
2022-12-19T19:27:08.506Z,14.20
2022-12-19T19:30:12.244Z,13.02
2022-12-19T19:33:21.758Z,11.52
2022-12-19T19:36:28.260Z,12.45
2022-12-19T19:39:32.659Z,12.90
2022-12-19T19:42:35.980Z,10.80
2022-12-19T19:45:43.265Z,12.80
2022-12-19T19:48:49.350Z,12.40
2022-12-19T19:51:55.631Z,12.15
2022-12-19T19:55:01.452Z,13.10
2022-12-19T19:58:04.267Z,13.20
2022-12-19T20:01:12.103Z,12.70
2022-12-19T20:04:15.287Z,12.88
2022-12-19T20:07:17.947Z,10.68
2022-12-19T20:10:21.113Z,12.05
2022-12-19T20:13:23.901Z,12.50
2022-12-19T20:16:26.848Z,13.45
2022-12-19T20:19:29.599Z,12.90
2022-12-19T20:22:35.456Z,13.98
2022-12-19T20:25:39.921Z,13.62
2022-12-19T20:28:48.400Z,14.57
2022-12-19T20:31:52.281Z,13.48
2022-12-19T20:34:55.490Z,14.38
2022-12-19T20:37:58.067Z,14.55
2022-12-19T20:41:01.213Z,13.50
2022-12-19T20:44:03.912Z,15.20
2022-12-19T20:47:06.942Z,14.77
2022-12-19T20:50:09.789Z,15.10
2022-12-19T20:53:12.697Z,13.38
2022-12-19T20:56:17.258Z,14.63
2022-12-19T20:59:20.329Z,14.43
2022-12-19T21:02:22.965Z,15.30
2022-12-19T21:05:26.005Z,14.10
2022-12-19T21:08:28.917Z,16.42
2022-12-19T21:11:32.020Z,14.40
2022-12-19T21:14:34.612Z,16.27
2022-12-19T21:17:37.849Z,15.85
2022-12-19T21:20:42.908Z,16.15
2022-12-19T21:23:45.933Z,14.13
2022-12-19T21:26:57.492Z,14.60
2022-12-19T21:30:01.018Z,14.73
2022-12-19T21:33:04.220Z,15.05
2022-12-19T21:36:08.624Z,15.68
2022-12-19T21:39:11.430Z,12.73
2022-12-19T21:42:14.462Z,16.40
2022-12-19T21:45:17.395Z,15.63
2022-12-19T21:48:20.273Z,14.65
2022-12-19T21:51:25.377Z,14.63
2022-12-19T21:54:28.241Z,16.27
2022-12-19T21:57:30.932Z,15.32
2022-12-19T22:00:35.691Z,16.27
2022-12-19T22:03:39.715Z,15.02
2022-12-19T22:06:42.282Z,16.17
2022-12-19T22:09:45.342Z,14.70
2022-12-19T22:12:48.331Z,15.50
2022-12-19T22:15:51.249Z,14.93
2022-12-19T22:18:55.005Z,15.30
2022-12-19T22:21:57.944Z,16.10
2022-12-19T22:25:00.521Z,15.13
2022-12-19T22:28:04.215Z,16.05
2022-12-19T22:31:24.308Z,14.03
2022-12-19T22:34:27.368Z,14.95
2022-12-19T22:37:30.077Z,14.50
2022-12-19T22:40:34.931Z,15.48
2022-12-19T22:43:38.974Z,16.62
2022-12-19T22:46:41.813Z,13.93
2022-12-19T22:49:44.532Z,14.02
2022-12-19T22:52:47.792Z,14.15
2022-12-19T22:55:50.386Z,14.77
2022-12-19T22:58:55.342Z,13.98
2022-12-19T23:01:58.219Z,14.07
2022-12-19T23:05:01.425Z,15.88
2022-12-19T23:08:04.424Z,14.35
2022-12-19T23:11:11.473Z,15.18
2022-12-19T23:14:15.997Z,14.40
2022-12-19T23:17:18.868Z,16.03
2022-12-19T23:20:21.379Z,14.05
2022-12-19T23:23:24.117Z,15.35
2022-12-19T23:26:27.905Z,15.35
2022-12-19T23:29:30.801Z,16.25
2022-12-19T23:32:33.522Z,14.90
2022-12-19T23:35:36.317Z,15.70
2022-12-19T23:38:39.051Z,16.30
2022-12-19T23:41:42.211Z,17.00
2022-12-19T23:44:44.988Z,15.23
2022-12-19T23:47:50.717Z,13.83
2022-12-19T23:51:17.572Z,14.75
2022-12-19T23:54:20.456Z,15.15
2022-12-19T23:57:22.936Z,16.35
